createdAt,value
2023-07-25T00:00:28.010Z,100122.22
2023-07-25T00:01:19.794Z,100113.53
2023-07-25T00:02:11.349Z,100118.75
2023-07-25T00:03:03.236Z,100118.81
2023-07-25T00:03:54.820Z,100115.34
2023-07-25T00:04:46.885Z,100125.03
2023-07-25T00:05:38.476Z,100119.78
2023-07-25T00:06:31.653Z,100127.63
2023-07-25T00:07:23.228Z,100125.91
2023-07-25T00:08:14.787Z,100121.56
2023-07-25T00:09:07.275Z,100126.81
2023-07-25T00:09:59.384Z,100123.34
2023-07-25T00:10:51.105Z,100124.25
2023-07-25T00:11:45.940Z,100123.41
2023-07-25T00:12:38.679Z,100125.16
2023-07-25T00:13:30.494Z,100125.19
2023-07-25T00:14:22.393Z,100133.00
2023-07-25T00:15:14.970Z,100136.50
2023-07-25T00:16:06.746Z,100130.41
2023-07-25T00:16:58.242Z,100133.91
2023-07-25T00:17:50.553Z,100139.13
2023-07-25T00:18:42.081Z,100140.88
2023-07-25T00:19:33.553Z,100129.53
2023-07-25T00:20:25.146Z,100133.88
2023-07-25T00:21:16.744Z,100134.72
2023-07-25T00:22:08.329Z,100131.22
2023-07-25T00:23:00.384Z,100135.59
2023-07-25T00:23:52.544Z,100133.00
2023-07-25T00:24:44.102Z,100132.97
2023-07-25T00:25:35.975Z,100136.44
2023-07-25T00:26:27.653Z,100138.16
2023-07-25T00:27:19.166Z,100139.94
2023-07-25T00:28:10.923Z,100134.72
2023-07-25T00:29:02.593Z,100132.97
2023-07-25T00:29:54.123Z,100140.84
2023-07-25T00:30:45.845Z,100136.50
2023-07-25T00:31:37.340Z,100129.53
2023-07-25T00:32:29.085Z,100135.66
2023-07-25T00:33:20.646Z,100136.53
2023-07-25T00:34:12.437Z,100135.66
2023-07-25T00:35:04.519Z,100132.16
2023-07-25T00:35:56.010Z,100138.31
2023-07-25T00:36:47.529Z,100138.31
2023-07-25T00:37:39.169Z,100139.22
2023-07-25T00:38:30.648Z,100139.25
2023-07-25T00:39:22.115Z,100146.19
2023-07-25T00:40:14.522Z,100143.63
2023-07-25T00:41:06.038Z,100147.97
2023-07-25T00:41:57.599Z,100143.63
2023-07-25T00:42:57.220Z,100139.22
2023-07-25T00:43:48.929Z,100136.59
2023-07-25T00:44:40.373Z,100141.00
2023-07-25T00:45:31.967Z,100143.56
2023-07-25T00:46:24.882Z,100143.59
2023-07-25T00:47:19.629Z,100143.59
2023-07-25T00:48:11.252Z,100145.34
2023-07-25T00:49:02.967Z,100151.44
2023-07-25T00:49:55.461Z,100142.72
2023-07-25T00:50:47.401Z,100143.56
2023-07-25T00:51:38.881Z,100140.97
2023-07-25T00:52:31.561Z,100137.47
2023-07-25T00:53:24.787Z,100139.19
2023-07-25T00:54:16.365Z,100139.16
2023-07-25T00:55:08.255Z,100133.91
2023-07-25T00:56:02.304Z,100141.78
2023-07-25T00:56:55.067Z,100130.41
2023-07-25T00:57:46.668Z,100135.66
2023-07-25T00:58:38.378Z,100135.66
2023-07-25T00:59:29.891Z,100136.56
2023-07-25T01:00:21.802Z,100140.94
2023-07-25T01:01:14.289Z,100138.31
2023-07-25T01:02:06.137Z,100136.53
2023-07-25T01:02:57.714Z,100127.81
2023-07-25T01:03:50.132Z,100136.53
2023-07-25T01:04:43.770Z,100126.94
2023-07-25T01:05:45.213Z,100126.06
2023-07-25T01:06:38.279Z,100129.56
2023-07-25T01:07:31.276Z,100129.59
2023-07-25T01:08:22.783Z,100124.31
2023-07-25T01:09:15.849Z,100126.94
2023-07-25T01:10:08.259Z,100123.47
2023-07-25T01:10:59.797Z,100114.72
2023-07-25T01:11:52.293Z,100124.31
2023-07-25T01:12:43.785Z,100123.44
2023-07-25T01:13:35.386Z,100116.44
2023-07-25T01:14:28.763Z,100123.44
2023-07-25T01:15:20.409Z,100113.84
2023-07-25T01:16:15.308Z,100112.94
2023-07-25T01:17:18.335Z,100112.94
2023-07-25T01:18:11.102Z,100112.94
2023-07-25T01:19:03.939Z,100106.84
2023-07-25T01:19:56.048Z,100112.94
2023-07-25T01:20:48.707Z,100103.34
2023-07-25T01:21:40.639Z,100102.44
2023-07-25T01:22:36.525Z,100107.75
2023-07-25T01:23:29.935Z,100101.66
2023-07-25T01:24:21.614Z,100098.16
2023-07-25T01:25:14.872Z,100094.69
2023-07-25T01:26:06.690Z,100097.28
2023-07-25T01:26:58.227Z,100096.44
2023-07-25T01:27:49.868Z,100095.59
2023-07-25T01:28:41.529Z,100094.69
2023-07-25T01:29:32.977Z,100092.06
2023-07-25T01:30:24.600Z,100094.69
2023-07-25T01:31:16.158Z,100088.53
2023-07-25T01:32:08.348Z,100085.94
2023-07-25T01:33:00.312Z,100085.06
2023-07-25T01:33:52.431Z,100085.97
2023-07-25T01:34:44.092Z,100077.22
2023-07-25T01:35:35.552Z,100085.06
2023-07-25T01:36:27.018Z,100079.84
2023-07-25T01:37:18.517Z,100075.47
2023-07-25T01:38:10.060Z,100077.28
2023-07-25T01:39:01.575Z,100076.41
2023-07-25T01:39:53.078Z,100074.66
2023-07-25T01:40:44.673Z,100078.16
2023-07-25T01:41:36.273Z,100074.66
2023-07-25T01:42:27.949Z,100078.16
2023-07-25T01:43:19.698Z,100076.38
2023-07-25T01:44:12.088Z,100076.41
2023-07-25T01:45:04.061Z,100068.53
2023-07-25T01:45:56.149Z,100071.19
2023-07-25T01:46:47.686Z,100070.34
2023-07-25T01:47:39.258Z,100068.66
2023-07-25T01:48:30.912Z,100066.91
2023-07-25T01:49:22.416Z,100071.34
2023-07-25T01:50:14.056Z,100074.84
2023-07-25T01:51:05.810Z,100072.22
2023-07-25T01:51:57.257Z,100079.25
2023-07-25T01:52:49.620Z,100077.47
2023-07-25T01:53:41.138Z,100072.25
2023-07-25T01:54:32.841Z,100075.78
2023-07-25T01:55:24.303Z,100081.03
2023-07-25T01:56:17.551Z,100076.69
2023-07-25T01:57:09.357Z,100073.22
2023-07-25T01:58:00.876Z,100077.59
2023-07-25T01:58:52.537Z,100083.72
2023-07-25T01:59:44.095Z,100080.22
2023-07-25T02:00:35.668Z,100075.88
2023-07-25T02:01:27.195Z,100075.88
2023-07-25T02:02:18.714Z,100080.25
2023-07-25T02:03:14.309Z,100074.16
2023-07-25T02:04:05.813Z,100082.88
2023-07-25T02:04:57.580Z,100078.53
2023-07-25T02:05:49.060Z,100077.66
2023-07-25T02:06:40.696Z,100082.06
2023-07-25T02:07:32.452Z,100077.66
2023-07-25T02:08:24.114Z,100075.94
2023-07-25T02:09:16.030Z,100077.66
2023-07-25T02:10:08.147Z,100075.06
2023-07-25T02:10:59.678Z,100074.19
2023-07-25T02:11:51.201Z,100077.69
2023-07-25T02:12:42.766Z,100072.44
2023-07-25T02:13:34.259Z,100078.56
2023-07-25T02:14:25.803Z,100067.22
2023-07-25T02:15:18.297Z,100075.09
2023-07-25T02:16:09.783Z,100075.94
2023-07-25T02:17:01.310Z,100063.75
2023-07-25T02:17:53.115Z,100067.22
2023-07-25T02:18:44.690Z,100065.50
2023-07-25T02:19:36.914Z,100060.25
2023-07-25T02:20:31.075Z,100066.34
2023-07-25T02:21:22.745Z,100058.50
2023-07-25T02:22:14.284Z,100058.50
2023-07-25T02:23:05.831Z,100054.16
2023-07-25T02:23:57.820Z,100056.78
2023-07-25T02:24:49.339Z,100052.41
2023-07-25T02:25:41.352Z,100053.31
2023-07-25T02:26:32.937Z,100055.94
2023-07-25T02:27:24.422Z,100055.09
2023-07-25T02:28:16.146Z,100057.72
2023-07-25T02:29:07.665Z,100054.22
2023-07-25T02:30:00.526Z,100059.47
2023-07-25T02:30:52.163Z,100059.47
2023-07-25T02:31:44.023Z,100053.38
2023-07-25T02:32:35.855Z,100054.25
2023-07-25T02:33:27.556Z,100053.41
2023-07-25T02:34:19.030Z,100061.25
2023-07-25T02:35:10.504Z,100067.38
2023-07-25T02:36:02.160Z,100059.50
2023-07-25T02:36:53.594Z,100066.53
2023-07-25T02:37:47.582Z,100071.75
2023-07-25T02:38:39.110Z,100071.78
2023-07-25T02:39:30.818Z,100063.06
2023-07-25T02:40:22.300Z,100066.53
2023-07-25T02:41:14.834Z,100056.13
2023-07-25T02:42:06.755Z,100059.59
2023-07-25T02:42:58.228Z,100064.81
2023-07-25T02:43:49.773Z,100060.47
2023-07-25T02:44:41.276Z,100057.84
2023-07-25T02:45:32.743Z,100056.97
2023-07-25T02:46:24.486Z,100063.09
2023-07-25T02:47:15.997Z,100064.84
2023-07-25T02:48:07.446Z,100063.13
2023-07-25T02:48:58.972Z,100057.88
2023-07-25T02:49:50.467Z,100073.59
2023-07-25T02:50:41.998Z,100067.50
2023-07-25T02:51:33.769Z,100069.22
2023-07-25T02:52:25.648Z,100068.38
2023-07-25T02:53:17.097Z,100066.63
2023-07-25T02:54:08.561Z,100071.88
2023-07-25T02:55:00.132Z,100068.41
2023-07-25T02:55:51.877Z,100071.88
2023-07-25T02:56:43.307Z,100064.91
2023-07-25T02:57:34.806Z,100073.63
2023-07-25T02:58:26.286Z,100073.66
2023-07-25T02:59:19.194Z,100071.94
2023-07-25T03:00:11.433Z,100078.00
2023-07-25T03:01:04.147Z,100077.13
2023-07-25T03:01:55.768Z,100074.53
2023-07-25T03:02:48.791Z,100080.66
2023-07-25T03:03:40.618Z,100077.13
2023-07-25T03:04:32.147Z,100074.53
2023-07-25T03:05:27.343Z,100073.66
2023-07-25T03:06:19.069Z,100078.00
2023-07-25T03:07:10.721Z,100075.38
2023-07-25T03:08:02.612Z,100077.13
2023-07-25T03:08:54.059Z,100066.66
2023-07-25T03:09:45.537Z,100075.34
2023-07-25T03:10:37.050Z,100067.53
2023-07-25T03:11:28.535Z,100071.88
2023-07-25T03:12:20.201Z,100069.22
2023-07-25T03:13:11.908Z,100073.59
2023-07-25T03:14:03.643Z,100077.09
2023-07-25T03:14:55.068Z,100073.56
2023-07-25T03:15:46.716Z,100082.31
2023-07-25T03:16:38.433Z,100081.44
2023-07-25T03:17:33.192Z,100082.31
2023-07-25T03:18:24.846Z,100076.19
2023-07-25T03:19:18.020Z,100080.56
2023-07-25T03:20:09.772Z,100077.94
2023-07-25T03:21:01.187Z,100078.81
2023-07-25T03:21:52.807Z,100076.19
2023-07-25T03:22:44.257Z,100077.06
2023-07-25T03:23:36.190Z,100073.59
2023-07-25T03:24:28.005Z,100070.13
2023-07-25T03:25:19.613Z,100068.38
2023-07-25T03:26:11.119Z,100074.47
2023-07-25T03:27:02.965Z,100071.88
2023-07-25T03:27:54.506Z,100075.38
2023-07-25T03:28:46.223Z,100074.50
2023-07-25T03:29:37.935Z,100077.13
2023-07-25T03:30:30.025Z,100064.94
2023-07-25T03:31:22.152Z,100074.53
2023-07-25T03:32:13.756Z,100071.06
2023-07-25T03:33:05.277Z,100070.19
2023-07-25T03:33:56.973Z,100065.81
2023-07-25T03:34:48.571Z,100067.59
2023-07-25T03:35:40.133Z,100072.81
2023-07-25T03:36:31.609Z,100071.09
2023-07-25T03:37:23.128Z,100069.34
2023-07-25T03:38:15.736Z,100064.97
2023-07-25T03:39:07.171Z,100062.38
2023-07-25T03:39:58.632Z,100058.84
2023-07-25T03:40:50.151Z,100054.53
2023-07-25T03:41:41.850Z,100060.63
2023-07-25T03:42:33.330Z,100061.47
2023-07-25T03:43:26.012Z,100057.97
2023-07-25T03:44:21.330Z,100056.25
2023-07-25T03:45:12.845Z,100060.59
2023-07-25T03:46:04.698Z,100058.88
2023-07-25T03:46:56.554Z,100059.75
2023-07-25T03:47:48.332Z,100061.47
2023-07-25T03:48:40.394Z,100061.50
2023-07-25T03:49:31.918Z,100057.13
2023-07-25T03:50:23.416Z,100057.13
2023-07-25T03:51:15.066Z,100056.28
2023-07-25T03:52:06.824Z,100052.78
2023-07-25T03:52:59.704Z,100057.13
2023-07-25T03:53:51.159Z,100048.44
2023-07-25T03:54:42.666Z,100049.31
2023-07-25T03:55:34.184Z,100048.44
2023-07-25T03:56:25.752Z,100041.47
2023-07-25T03:57:17.330Z,100051.06
2023-07-25T03:58:08.917Z,100053.66
2023-07-25T03:59:01.321Z,100050.16
2023-07-25T03:59:52.761Z,100047.59
2023-07-25T04:00:44.435Z,100056.28
2023-07-25T04:01:36.013Z,100048.47
2023-07-25T04:02:27.810Z,100049.31
2023-07-25T04:03:19.496Z,100046.72
2023-07-25T04:04:11.280Z,100046.72
2023-07-25T04:05:03.158Z,100052.84
2023-07-25T04:05:56.392Z,100045.84
2023-07-25T04:06:47.860Z,100051.06
2023-07-25T04:07:39.432Z,100049.34
2023-07-25T04:08:30.858Z,100049.34
2023-07-25T04:09:22.313Z,100051.97
2023-07-25T04:10:13.864Z,100049.34
2023-07-25T04:11:05.349Z,100051.97
2023-07-25T04:11:56.983Z,100052.81
2023-07-25T04:12:48.666Z,100055.44
2023-07-25T04:13:40.915Z,100057.19
2023-07-25T04:14:32.401Z,100056.31
2023-07-25T04:15:23.891Z,100057.19
2023-07-25T04:16:15.471Z,100052.84
2023-07-25T04:17:07.536Z,100052.84
2023-07-25T04:17:59.060Z,100056.31
2023-07-25T04:18:50.983Z,100058.03
2023-07-25T04:19:42.707Z,100060.69
2023-07-25T04:20:34.428Z,100065.03
2023-07-25T04:21:25.980Z,100058.94
2023-07-25T04:22:17.510Z,100056.31
2023-07-25T04:23:11.140Z,100049.34
2023-07-25T04:24:02.790Z,100051.09
2023-07-25T04:24:54.531Z,100049.34
2023-07-25T04:25:46.365Z,100048.50
2023-07-25T04:26:37.891Z,100040.66
2023-07-25T04:27:31.981Z,100050.22
2023-07-25T04:28:23.474Z,100045.00
2023-07-25T04:29:14.975Z,100047.59
2023-07-25T04:30:07.008Z,100045.88
2023-07-25T04:30:58.526Z,100050.22
2023-07-25T04:31:50.019Z,100053.69
2023-07-25T04:32:41.567Z,100053.69
2023-07-25T04:33:33.070Z,100063.28
2023-07-25T04:34:25.905Z,100057.19
2023-07-25T04:35:17.561Z,100060.66
2023-07-25T04:36:09.615Z,100049.34
2023-07-25T04:37:01.519Z,100058.06
2023-07-25T04:37:53.068Z,100051.97
2023-07-25T04:38:44.489Z,100051.97
2023-07-25T04:39:37.265Z,100048.50
2023-07-25T04:40:30.062Z,100051.97
2023-07-25T04:41:21.666Z,100053.69
2023-07-25T04:42:13.132Z,100058.06
2023-07-25T04:43:04.996Z,100057.19
2023-07-25T04:43:56.499Z,100051.97
2023-07-25T04:44:48.017Z,100055.44
2023-07-25T04:45:39.501Z,100058.06
2023-07-25T04:46:31.381Z,100058.06
2023-07-25T04:47:23.123Z,100057.19
2023-07-25T04:48:14.667Z,100058.91
2023-07-25T04:49:07.866Z,100055.44
2023-07-25T04:49:59.622Z,100055.44
2023-07-25T04:50:51.174Z,100059.78
2023-07-25T04:51:44.718Z,100059.78
2023-07-25T04:52:36.368Z,100065.91
2023-07-25T04:53:27.922Z,100065.03
2023-07-25T04:54:19.971Z,100064.16
2023-07-25T04:55:11.668Z,100066.78
2023-07-25T04:56:03.254Z,100064.16
2023-07-25T04:56:54.793Z,100056.31
2023-07-25T04:57:46.408Z,100057.19
2023-07-25T04:58:42.160Z,100068.50
2023-07-25T04:59:33.920Z,100067.63
2023-07-25T05:00:25.500Z,100063.28
2023-07-25T05:01:16.997Z,100064.13
2023-07-25T05:02:08.463Z,100066.75
2023-07-25T05:03:00.068Z,100058.91
2023-07-25T05:03:51.685Z,100060.66
2023-07-25T05:04:43.258Z,100057.13
2023-07-25T05:05:34.727Z,100057.13
2023-07-25T05:06:26.224Z,100060.63
2023-07-25T05:07:18.490Z,100052.78
2023-07-25T05:08:10.250Z,100058.00
2023-07-25T05:09:01.709Z,100055.38
2023-07-25T05:09:53.158Z,100044.91
2023-07-25T05:10:44.885Z,100049.28
2023-07-25T05:11:36.307Z,100046.69
2023-07-25T05:12:27.773Z,100052.75
2023-07-25T05:13:19.656Z,100045.81
2023-07-25T05:14:11.239Z,100045.81
2023-07-25T05:15:02.892Z,100049.28
2023-07-25T05:15:54.458Z,100038.78
2023-07-25T05:16:45.950Z,100042.25
2023-07-25T05:17:37.469Z,100038.72
2023-07-25T05:18:28.912Z,100037.84
2023-07-25T05:19:20.429Z,100037.84
2023-07-25T05:20:11.956Z,100025.56
2023-07-25T05:21:03.657Z,100030.75
2023-07-25T05:21:55.155Z,100024.59
2023-07-25T05:22:46.793Z,100029.75
2023-07-25T05:23:38.460Z,100029.75
2023-07-25T05:24:29.967Z,100029.66
2023-07-25T05:25:21.404Z,100033.09
2023-07-25T05:26:12.947Z,100028.69
2023-07-25T05:27:04.910Z,100027.78
2023-07-25T05:27:56.619Z,100036.44
2023-07-25T05:28:48.117Z,100038.19
2023-07-25T05:29:39.772Z,100040.78
2023-07-25T05:30:32.557Z,100035.59
2023-07-25T05:31:24.161Z,100035.53
2023-07-25T05:32:15.633Z,100041.66
2023-07-25T05:33:08.686Z,100039.88
2023-07-25T05:34:00.225Z,100039.91
2023-07-25T05:34:51.716Z,100042.50
2023-07-25T05:35:43.413Z,100046.03
2023-07-25T05:36:35.394Z,100048.66
2023-07-25T05:37:37.974Z,100046.97
2023-07-25T05:38:29.712Z,100047.78
2023-07-25T05:39:21.170Z,100050.38
2023-07-25T05:40:12.936Z,100046.06
2023-07-25T05:41:04.367Z,100056.56
2023-07-25T05:41:55.928Z,100054.78
2023-07-25T05:42:48.438Z,100057.38
2023-07-25T05:43:39.896Z,100055.63
2023-07-25T05:44:31.748Z,100051.28
2023-07-25T05:45:23.478Z,100062.63
2023-07-25T05:46:15.026Z,100046.03
2023-07-25T05:47:06.835Z,100048.66
2023-07-25T05:47:58.358Z,100067.00
2023-07-25T05:48:50.622Z,100051.25
2023-07-25T05:49:42.116Z,100060.88
2023-07-25T05:50:33.808Z,100056.53
2023-07-25T05:51:25.282Z,100053.00
2023-07-25T05:52:18.065Z,100054.75
2023-07-25T05:53:09.522Z,100061.72
2023-07-25T05:54:00.988Z,100056.50
2023-07-25T05:54:53.937Z,100056.44
2023-07-25T05:55:46.968Z,100056.41
2023-07-25T05:56:38.430Z,100057.28
2023-07-25T05:57:29.901Z,100054.66
2023-07-25T05:58:21.409Z,100054.66
2023-07-25T05:59:13.111Z,100065.97
2023-07-25T06:00:05.323Z,100062.50
2023-07-25T06:00:57.828Z,100068.63
2023-07-25T06:01:49.461Z,100065.09
2023-07-25T06:02:40.972Z,100071.19
2023-07-25T06:03:32.837Z,100074.66
2023-07-25T06:04:24.366Z,100065.06
2023-07-25T06:05:16.072Z,100080.78
2023-07-25T06:06:07.557Z,100074.69
2023-07-25T06:06:58.969Z,100076.38
2023-07-25T06:07:50.622Z,100080.72
2023-07-25T06:08:42.110Z,100080.66
2023-07-25T06:09:33.584Z,100083.28
2023-07-25T06:10:25.122Z,100084.97
2023-07-25T06:11:22.096Z,100089.31
2023-07-25T06:12:15.079Z,100081.47
2023-07-25T06:13:08.192Z,100087.53
2023-07-25T06:14:00.396Z,100080.53
2023-07-25T06:14:51.998Z,100089.22
2023-07-25T06:15:43.731Z,100093.56
2023-07-25T06:16:35.272Z,100086.59
2023-07-25T06:17:26.778Z,100092.69
2023-07-25T06:18:19.770Z,100088.34
2023-07-25T06:19:11.475Z,100088.34
2023-07-25T06:20:03.127Z,100093.63
2023-07-25T06:20:54.697Z,100097.94
2023-07-25T06:21:46.607Z,100094.44
2023-07-25T06:22:38.560Z,100095.34
2023-07-25T06:23:30.076Z,100097.13
2023-07-25T06:24:21.787Z,100095.38
2023-07-25T06:25:15.778Z,100095.38
2023-07-25T06:26:07.381Z,100091.03
2023-07-25T06:26:59.135Z,100085.75
2023-07-25T06:27:50.699Z,100096.25
2023-07-25T06:28:42.124Z,100090.09
2023-07-25T06:29:34.210Z,100082.25
2023-07-25T06:30:25.708Z,100085.75
2023-07-25T06:31:17.268Z,100079.63
2023-07-25T06:32:09.071Z,100077.84
2023-07-25T06:33:00.817Z,100088.34
2023-07-25T06:33:52.267Z,100087.44
2023-07-25T06:34:43.669Z,100084.75
2023-07-25T06:35:35.227Z,100086.56
2023-07-25T06:36:26.665Z,100088.34
2023-07-25T06:37:18.813Z,100097.09
2023-07-25T06:38:11.153Z,100091.00
2023-07-25T06:39:03.801Z,100086.59
2023-07-25T06:39:56.555Z,100093.50
2023-07-25T06:40:48.026Z,100079.56
2023-07-25T06:41:39.506Z,100086.53
2023-07-25T06:42:32.738Z,100080.38
2023-07-25T06:43:27.700Z,100089.06
2023-07-25T06:44:20.878Z,100088.28
2023-07-25T06:45:12.438Z,100084.72
2023-07-25T06:46:04.174Z,100088.19
2023-07-25T06:46:58.412Z,100089.91
2023-07-25T06:47:56.066Z,100083.75
2023-07-25T06:48:47.521Z,100088.94
2023-07-25T06:49:39.203Z,100090.66
2023-07-25T06:50:33.836Z,100088.94
2023-07-25T06:51:25.390Z,100082.84
2023-07-25T06:52:16.868Z,100087.22
2023-07-25T06:53:08.379Z,100094.13
2023-07-25T06:53:59.803Z,100083.63
2023-07-25T06:54:51.371Z,100090.66
2023-07-25T06:55:42.849Z,100091.47
2023-07-25T06:56:34.265Z,100095.94
2023-07-25T06:57:25.845Z,100101.16
2023-07-25T06:58:17.323Z,100096.78
2023-07-25T06:59:08.731Z,100094.16
2023-07-25T07:00:01.445Z,100089.88
2023-07-25T07:00:53.074Z,100095.94
2023-07-25T07:01:44.937Z,100096.81
2023-07-25T07:02:36.607Z,100092.53
2023-07-25T07:03:28.250Z,100099.56
2023-07-25T07:04:20.143Z,100101.22
2023-07-25T07:05:27.755Z,100102.03
2023-07-25T07:06:22.122Z,100102.16
2023-07-25T07:07:13.666Z,100103.06
2023-07-25T07:08:05.874Z,100105.63
2023-07-25T07:08:57.453Z,100102.09
2023-07-25T07:09:49.872Z,100102.03
2023-07-25T07:10:41.589Z,100106.47
2023-07-25T07:11:34.839Z,100103.81
2023-07-25T07:12:27.212Z,100106.31
2023-07-25T07:13:18.780Z,100105.44
2023-07-25T07:14:10.622Z,100108.94
2023-07-25T07:15:02.197Z,100115.88
2023-07-25T07:15:53.704Z,100112.28
2023-07-25T07:16:45.314Z,100109.63
2023-07-25T07:17:36.888Z,100113.13
2023-07-25T07:18:28.313Z,100106.09
2023-07-25T07:19:19.986Z,100108.69
2023-07-25T07:20:11.928Z,100106.97
2023-07-25T07:21:03.443Z,100113.97
2023-07-25T07:21:55.015Z,100107.75
2023-07-25T07:22:46.974Z,100106.94
2023-07-25T07:23:38.492Z,100108.72
2023-07-25T07:24:30.134Z,100112.91
2023-07-25T07:25:21.785Z,100112.09
2023-07-25T07:26:13.352Z,100113.84
2023-07-25T07:27:05.089Z,100118.13
2023-07-25T07:27:56.734Z,100119.81
2023-07-25T07:28:48.142Z,100120.69
2023-07-25T07:29:39.537Z,100118.03
2023-07-25T07:30:31.091Z,100118.81
2023-07-25T07:31:24.701Z,100117.88
2023-07-25T07:32:16.263Z,100118.69
2023-07-25T07:33:07.924Z,100116.72
2023-07-25T07:34:18.928Z,100114.03
2023-07-25T07:35:10.617Z,100116.66
2023-07-25T07:36:02.373Z,100114.84
2023-07-25T07:36:53.832Z,100113.03
2023-07-25T07:37:45.270Z,100101.50
2023-07-25T07:38:36.735Z,100111.16
2023-07-25T07:39:28.239Z,100107.50
2023-07-25T07:40:19.791Z,100105.59
2023-07-25T07:41:11.208Z,100109.34
2023-07-25T07:42:03.071Z,100105.84
2023-07-25T07:42:54.768Z,100104.16
2023-07-25T07:43:46.417Z,100107.63
2023-07-25T07:44:38.175Z,100111.97
2023-07-25T07:45:31.478Z,100110.16
2023-07-25T07:46:23.055Z,100116.22
2023-07-25T07:47:14.545Z,100107.75
2023-07-25T07:48:06.200Z,100105.91
2023-07-25T07:48:58.857Z,100106.72
2023-07-25T07:49:50.351Z,100112.63
2023-07-25T07:50:45.179Z,100110.00
2023-07-25T07:51:36.730Z,100117.06
2023-07-25T07:52:41.679Z,100117.16
2023-07-25T07:53:34.073Z,100114.63
2023-07-25T07:54:25.673Z,100118.84
2023-07-25T07:55:17.798Z,100112.72
2023-07-25T07:56:09.381Z,100117.91
2023-07-25T07:57:01.145Z,100120.63
2023-07-25T07:57:53.937Z,100111.09
2023-07-25T07:58:46.180Z,100115.28
2023-07-25T07:59:38.735Z,100115.22
2023-07-25T08:00:32.305Z,100121.38
2023-07-25T08:01:24.204Z,100119.63
2023-07-25T08:02:15.692Z,100122.13
2023-07-25T08:03:07.291Z,100120.44
2023-07-25T08:03:58.981Z,100123.88
2023-07-25T08:04:50.710Z,100124.72
2023-07-25T08:05:44.258Z,100118.69
2023-07-25T08:06:35.746Z,100119.63
2023-07-25T08:07:27.223Z,100124.78
2023-07-25T08:08:18.814Z,100121.09
2023-07-25T08:09:10.436Z,100122.53
2023-07-25T08:10:02.147Z,100123.31
2023-07-25T08:10:54.772Z,100124.22
2023-07-25T08:11:46.350Z,100127.69
2023-07-25T08:12:38.511Z,100112.97
2023-07-25T08:13:30.466Z,100119.00
2023-07-25T08:14:22.030Z,100115.38
2023-07-25T08:15:13.554Z,100127.75
2023-07-25T08:16:06.039Z,100114.69
2023-07-25T08:16:57.883Z,100116.38
2023-07-25T08:17:49.710Z,100122.38
2023-07-25T08:18:41.200Z,100124.81
2023-07-25T08:19:34.106Z,100118.91
2023-07-25T08:20:25.832Z,100124.19
2023-07-25T08:21:17.580Z,100125.22
2023-07-25T08:22:11.565Z,100118.06
2023-07-25T08:23:03.066Z,100122.44
2023-07-25T08:23:54.690Z,100118.78
2023-07-25T08:24:46.482Z,100116.88
2023-07-25T08:25:41.840Z,100122.91
2023-07-25T08:26:33.574Z,100127.94
2023-07-25T08:27:25.063Z,100121.78
2023-07-25T08:28:17.316Z,100127.88
2023-07-25T08:29:09.089Z,100125.94
2023-07-25T08:30:00.638Z,100123.94
2023-07-25T08:31:03.162Z,100123.09
2023-07-25T08:31:55.237Z,100125.47
2023-07-25T08:32:46.891Z,100129.09
2023-07-25T08:33:38.501Z,100127.41
2023-07-25T08:34:30.030Z,100131.97
2023-07-25T08:35:21.803Z,100131.13
2023-07-25T08:36:13.430Z,100117.91
2023-07-25T08:37:08.144Z,100116.81
2023-07-25T08:37:59.726Z,100122.91
2023-07-25T08:38:51.530Z,100122.97
2023-07-25T08:39:43.040Z,100126.44
2023-07-25T08:40:34.819Z,100115.31
2023-07-25T08:41:31.553Z,100125.00
2023-07-25T08:42:26.841Z,100126.59
2023-07-25T08:43:22.825Z,100126.84
2023-07-25T08:44:17.888Z,100135.66
2023-07-25T08:45:10.142Z,100136.72
2023-07-25T08:46:09.034Z,100128.94
2023-07-25T08:47:07.301Z,100125.41
2023-07-25T08:48:05.673Z,100129.47
2023-07-25T08:49:02.546Z,100127.59
2023-07-25T08:49:59.129Z,100129.66
2023-07-25T08:50:53.857Z,100129.59
2023-07-25T08:51:46.195Z,100115.41
2023-07-25T08:52:41.892Z,100125.00
2023-07-25T08:53:34.558Z,100135.38
2023-07-25T08:54:31.962Z,100125.53
2023-07-25T08:55:23.619Z,100126.31
2023-07-25T08:56:16.150Z,100126.44
2023-07-25T08:57:08.800Z,100136.97
2023-07-25T08:58:01.371Z,100131.91
2023-07-25T08:58:55.754Z,100138.13
2023-07-25T08:59:51.146Z,100131.97
2023-07-25T09:00:44.425Z,100131.25
2023-07-25T09:01:36.177Z,100137.31
2023-07-25T09:02:29.121Z,100132.09
2023-07-25T09:03:21.279Z,100141.66
2023-07-25T09:04:14.850Z,100139.91
2023-07-25T09:05:07.484Z,100139.91
2023-07-25T09:06:01.439Z,100138.91
2023-07-25T09:06:53.775Z,100141.84
2023-07-25T09:07:45.265Z,100147.25
2023-07-25T09:08:36.756Z,100145.44
2023-07-25T09:09:28.292Z,100143.72
2023-07-25T09:10:19.842Z,100135.88
2023-07-25T09:11:14.265Z,100151.50
2023-07-25T09:12:08.631Z,100146.31
2023-07-25T09:13:00.116Z,100149.09
2023-07-25T09:13:51.637Z,100149.09
2023-07-25T09:14:44.388Z,100148.94
2023-07-25T09:15:35.851Z,100157.84
2023-07-25T09:16:27.784Z,100152.63
2023-07-25T09:17:21.386Z,100150.97
2023-07-25T09:18:13.116Z,100146.66
2023-07-25T09:19:04.694Z,100142.22
2023-07-25T09:19:57.399Z,100152.03
2023-07-25T09:20:49.766Z,100143.41
2023-07-25T09:21:54.791Z,100156.25
2023-07-25T09:22:49.812Z,100150.31
2023-07-25T09:23:54.699Z,100144.25
2023-07-25T09:24:46.186Z,100144.31
2023-07-25T09:25:38.123Z,100144.31
2023-07-25T09:26:31.770Z,100150.69
2023-07-25T09:27:23.613Z,100145.53
2023-07-25T09:28:15.376Z,100148.97
2023-07-25T09:29:06.802Z,100143.53
2023-07-25T09:29:58.324Z,100146.19
2023-07-25T09:30:49.781Z,100145.28
2023-07-25T09:31:46.565Z,100149.59
2023-07-25T09:32:39.353Z,100150.53
2023-07-25T09:33:31.676Z,100152.09
2023-07-25T09:34:27.440Z,100152.97
2023-07-25T09:35:18.931Z,100152.81
2023-07-25T09:36:10.368Z,100154.44
2023-07-25T09:37:05.357Z,100149.22
2023-07-25T09:37:57.472Z,100144.88
2023-07-25T09:38:56.142Z,100152.75
2023-07-25T09:39:48.438Z,100150.97
2023-07-25T09:40:41.606Z,100151.13
2023-07-25T09:41:36.182Z,100151.75
2023-07-25T09:42:27.702Z,100157.78
2023-07-25T09:43:28.995Z,100149.03
2023-07-25T09:44:20.460Z,100154.06
2023-07-25T09:45:13.334Z,100160.81
2023-07-25T09:46:04.845Z,100158.06
2023-07-25T09:46:58.179Z,100149.16
2023-07-25T09:47:53.285Z,100140.50
2023-07-25T09:48:48.115Z,100161.56
2023-07-25T09:49:39.784Z,100158.72
2023-07-25T09:50:34.726Z,100153.19
2023-07-25T09:51:26.254Z,100155.94
2023-07-25T09:52:18.278Z,100159.41
2023-07-25T09:53:17.628Z,100155.47
2023-07-25T09:54:09.378Z,100154.25
2023-07-25T09:55:00.983Z,100155.00
2023-07-25T09:55:53.192Z,100153.59
2023-07-25T09:56:44.943Z,100155.16